Time;durP1;ratioP1;P1;durP2;ratioP2;P2;SDS_P1;SDS_P2;PMS_P1;PMS_P2;Temp;Humidity;BMP_temperature;BMP_pressure;BME280_temperature;BME280_humidity;BME280_pressure;Samples;Min_cycle;Max_cycle;Signal;HPM_P1;HPM_P2
2022/02/01 00:00:44;;;;;;;20.80;7.90;;;1.70;97.30;;;;;;5076499;28;20193;-79
2022/02/01 00:03:14;;;;;;;32.20;9.07;;;1.70;97.30;;;;;;5058199;28;20862;-78
2022/02/01 00:05:48;;;;;;;26.63;8.03;;;1.80;97.30;;;;;;5057825;28;20517;-79
2022/02/01 00:10:56;;;;;;;26.80;8.70;;;1.80;97.30;;;;;;5075518;28;20441;-79
2022/02/01 00:18:39;;;;;;;47.07;10.53;;;1.90;97.30;;;;;;5076086;28;20458;-79
2022/02/01 00:35:13;;;;;;;25.37;6.40;;;1.90;97.30;;;;;;5074323;28;20497;-79
2022/02/01 00:37:51;;;;;;;28.70;7.43;;;1.90;97.30;;;;;;5057401;28;20425;-79
2022/02/01 00:40:17;;;;;;;23.40;7.87;;;1.80;97.30;;;;;;5049742;28;20469;-80
2022/02/01 00:42:43;;;;;;;20.30;7.80;;;1.80;97.30;;;;;;5075028;28;21017;-79
2022/02/01 00:45:08;;;;;;;23.03;10.00;;;1.90;97.30;;;;;;5057386;28;20175;-79
2022/02/01 00:47:34;;;;;;;23.90;9.70;;;1.90;97.30;;;;;;5075311;28;20167;-79
2022/02/01 00:49:59;;;;;;;35.23;9.87;;;1.90;97.30;;;;;;5075112;28;20183;-79
2022/02/01 00:52:27;;;;;;;30.53;9.77;;;1.90;97.30;;;;;;5057211;28;20623;-79
2022/02/01 00:54:53;;;;;;;34.10;9.30;;;1.90;97.30;;;;;;5075245;28;20630;-80
2022/02/01 00:57:18;;;;;;;33.40;10.07;;;1.90;97.30;;;;;;5057844;28;20445;-79
2022/02/01 00:59:44;;;;;;;25.63;9.20;;;1.90;97.30;;;;;;5075435;28;20685;-79
2022/02/01 01:02:10;;;;;;;25.97;10.57;;;1.90;97.30;;;;;;5074933;28;20195;-79
2022/02/01 01:04:35;;;;;;;39.53;11.80;;;1.90;97.30;;;;;;5057135;28;20175;-80
2022/02/01 01:07:01;;;;;;;29.77;10.53;;;1.90;97.30;;;;;;5075480;28;20179;-80
2022/02/01 01:09:27;;;;;;;36.30;10.90;;;1.90;97.30;;;;;;5075460;28;20175;-79
2022/02/01 01:11:55;;;;;;;26.60;10.70;;;2.00;97.30;;;;;;5057674;28;20440;-79
2022/02/01 01:18:09;;;;;;;32.37;10.77;;;2.00;97.30;;;;;;5076051;28;20416;-79
2022/02/01 01:44:24;;;;;;;27.20;10.40;;;1.90;97.30;;;;;;5074478;28;20511;-79
2022/02/01 01:55:04;;;;;;;27.60;9.60;;;2.00;97.30;;;;;;5076438;28;20416;-79
2022/02/01 01:57:30;;;;;;;26.40;10.57;;;2.00;97.30;;;;;;5058318;28;20416;-79
2022/02/01 01:59:55;;;;;;;36.80;10.10;;;2.00;97.30;;;;;;5059917;28;20527;-81
2022/02/01 02:02:21;;;;;;;32.50;9.80;;;2.00;97.30;;;;;;5061181;28;20754;-81
2022/02/01 02:04:46;;;;;;;35.70;9.50;;;1.90;97.30;;;;;;5061245;28;20691;-82
2022/02/01 02:07:13;;;;;;;33.50;10.33;;;2.00;97.30;;;;;;5078950;28;20176;-79
2022/02/01 02:09:38;;;;;;;27.27;10.93;;;1.90;97.30;;;;;;5061391;28;20227;-80
2022/02/01 02:12:14;;;;;;;24.77;9.17;;;1.90;97.30;;;;;;5061175;28;20497;-81
2022/02/01 02:14:46;;;;;;;22.33;9.33;;;1.90;97.30;;;;;;5061244;28;20175;-80
2022/02/01 02:17:12;;;;;;;27.20;10.10;;;1.90;97.30;;;;;;5061642;28;20789;-80
2022/02/01 02:19:37;;;;;;;30.73;9.93;;;2.00;97.30;;;;;;5061092;28;20420;-80
2022/02/01 02:22:05;;;;;;;30.57;8.70;;;2.00;97.30;;;;;;5060405;28;20203;-79
2022/02/01 02:24:36;;;;;;;29.13;10.67;;;2.00;97.30;;;;;;5061098;28;20171;-80
2022/02/01 02:27:02;;;;;;;25.03;9.77;;;2.00;97.30;;;;;;5060479;28;21053;-80
2022/02/01 02:29:29;;;;;;;29.93;10.20;;;2.00;97.30;;;;;;5078489;28;20409;-82
2022/02/01 02:31:56;;;;;;;27.00;10.73;;;2.00;97.30;;;;;;5060488;28;20907;-82
2022/02/01 02:34:21;;;;;;;31.03;9.33;;;2.00;97.30;;;;;;5078902;28;20417;-80
2022/02/01 02:36:59;;;;;;;33.40;11.10;;;2.00;97.30;;;;;;5060846;28;20440;-79
2022/02/01 02:40:00;;;;;;;32.40;10.00;;;2.00;97.30;;;;;;5060327;28;20206;-80
2022/02/01 02:42:15;;;;;;;26.80;9.07;;;2.00;97.30;;;;;;5077811;28;20941;-79
2022/02/01 02:47:28;;;;;;;21.33;10.13;;;2.00;97.30;;;;;;5079096;28;20400;-80
2022/02/01 02:49:54;;;;;;;19.17;8.03;;;1.90;97.30;;;;;;5060497;28;20421;-79
2022/02/01 02:52:20;;;;;;;26.43;9.70;;;1.90;97.30;;;;;;5059889;28;20433;-80
2022/02/01 02:54:46;;;;;;;24.87;9.10;;;2.00;97.30;;;;;;5060010;28;20428;-82
2022/02/01 02:57:11;;;;;;;27.00;9.77;;;1.90;97.30;;;;;;5059555;28;20418;-80
2022/02/01 02:59:38;;;;;;;37.83;9.43;;;2.00;97.30;;;;;;5060078;28;20190;-80
2022/02/01 03:02:06;;;;;;;22.70;9.00;;;2.00;97.30;;;;;;5059413;28;20240;-79
2022/02/01 03:04:33;;;;;;;26.13;8.13;;;2.00;97.30;;;;;;5077359;28;20416;-79
2022/02/01 03:07:00;;;;;;;21.97;8.60;;;2.00;97.30;;;;;;5057583;28;20453;-80
2022/02/01 03:09:27;;;;;;;22.47;8.33;;;1.90;97.30;;;;;;5076773;28;20471;-81
2022/02/01 03:11:56;;;;;;;16.10;6.50;;;2.00;97.30;;;;;;5058591;28;20444;-79
2022/02/01 03:22:07;;;;;;;19.40;7.70;;;2.00;97.30;;;;;;5077238;28;20467;-80
2022/02/01 03:24:33;;;;;;;22.43;7.57;;;2.00;97.30;;;;;;5058970;28;20421;-80
2022/02/01 03:26:58;;;;;;;30.20;8.27;;;2.00;97.30;;;;;;5059438;28;20182;-80
2022/02/01 03:29:24;;;;;;;25.33;8.53;;;2.00;97.30;;;;;;5077076;28;20183;-81
2022/02/01 03:31:50;;;;;;;23.53;7.37;;;2.00;97.30;;;;;;5059101;28;20190;-80
2022/02/01 03:34:15;;;;;;;20.87;6.87;;;2.00;97.30;;;;;;5058588;28;20218;-80
2022/02/01 03:36:41;;;;;;;22.87;7.50;;;2.00;97.30;;;;;;5076795;28;20582;-80
2022/02/01 03:39:07;;;;;;;17.87;7.33;;;2.00;97.30;;;;;;5077203;28;20211;-79
2022/02/01 03:41:33;;;;;;;23.50;8.50;;;2.00;97.30;;;;;;5058378;28;20472;-80
2022/02/01 03:44:00;;;;;;;24.33;8.30;;;2.00;97.30;;;;;;5058509;28;20225;-79
2022/02/01 03:46:26;;;;;;;25.27;7.70;;;2.00;97.30;;;;;;5058613;28;20175;-79
2022/02/01 03:48:52;;;;;;;30.80;8.57;;;2.00;97.30;;;;;;5059033;28;20409;-80
2022/02/01 03:51:17;;;;;;;15.97;7.13;;;2.10;97.30;;;;;;5058633;28;20475;-80
2022/02/01 03:53:43;;;;;;;25.50;8.20;;;2.10;97.30;;;;;;5058598;28;20289;-79
2022/02/01 03:56:08;;;;;;;30.63;8.30;;;2.10;97.30;;;;;;5058199;28;20928;-80
2022/02/01 03:58:34;;;;;;;20.07;7.30;;;2.00;97.30;;;;;;5059219;28;20195;-80
2022/02/01 04:00:59;;;;;;;23.03;6.40;;;2.00;97.30;;;;;;5076683;28;20187;-79
2022/02/01 04:03:25;;;;;;;21.10;6.63;;;2.00;97.30;;;;;;5058467;28;20205;-82
2022/02/01 04:05:50;;;;;;;15.27;6.20;;;2.00;97.30;;;;;;5058041;28;20176;-79
2022/02/01 04:08:18;;;;;;;13.20;6.00;;;2.00;97.30;;;;;;5076419;28;20799;-80
2022/02/01 04:10:46;;;;;;;21.63;7.13;;;2.00;97.30;;;;;;5058219;28;20175;-80
2022/02/01 04:13:11;;;;;;;19.00;6.33;;;2.00;97.30;;;;;;5057724;28;20844;-80
2022/02/01 04:15:37;;;;;;;19.37;6.30;;;2.00;97.30;;;;;;5058318;28;20424;-80
2022/02/01 04:18:02;;;;;;;18.87;5.90;;;2.00;97.30;;;;;;5057726;28;20224;-80
2022/02/01 04:20:28;;;;;;;20.53;5.80;;;2.00;97.30;;;;;;5057613;28;20202;-80
2022/02/01 04:22:54;;;;;;;13.20;5.67;;;2.00;97.30;;;;;;5056812;28;20211;-79
2022/02/01 04:25:19;;;;;;;13.40;5.83;;;1.90;97.30;;;;;;5057007;28;20166;-79
2022/02/01 04:27:45;;;;;;;13.17;4.80;;;1.90;97.30;;;;;;5074502;28;20199;-79
2022/02/01 04:30:14;;;;;;;18.23;5.50;;;1.90;97.30;;;;;;5057150;28;20194;-79
2022/02/01 04:32:48;;;;;;;16.00;6.20;;;1.90;97.30;;;;;;5058131;28;20214;-80
2022/02/01 04:35:19;;;;;;;15.57;5.73;;;1.90;97.30;;;;;;5037530;28;20414;-80
2022/02/01 04:37:44;;;;;;;19.70;6.30;;;1.90;97.30;;;;;;5054876;28;20409;-79
2022/02/01 04:40:17;;;;;;;20.60;5.90;;;1.90;97.30;;;;;;5037249;28;20788;-81
2022/02/01 04:42:43;;;;;;;18.03;7.27;;;1.90;97.30;;;;;;5037074;28;20606;-81
2022/02/01 04:45:13;;;;;;;18.87;5.57;;;1.90;97.30;;;;;;5037128;28;20422;-81
2022/02/01 04:47:39;;;;;;;12.73;6.43;;;1.90;97.30;;;;;;5065984;28;20432;-80
2022/02/01 04:50:11;;;;;;;14.97;5.80;;;1.90;97.30;;;;;;5058398;28;20423;-80
2022/02/01 04:52:37;;;;;;;12.20;5.37;;;1.90;97.30;;;;;;5058268;28;20206;-81
2022/02/01 04:55:03;;;;;;;14.50;6.40;;;1.90;97.30;;;;;;5058033;28;21073;-80
2022/02/01 04:57:28;;;;;;;25.13;7.30;;;1.90;97.30;;;;;;5058288;28;20183;-81
2022/02/01 04:59:54;;;;;;;13.20;5.87;;;1.90;97.30;;;;;;5057934;28;20422;-81
2022/02/01 05:02:19;;;;;;;14.37;6.13;;;1.90;97.30;;;;;;5076557;28;20238;-81
2022/02/01 05:04:45;;;;;;;18.80;6.00;;;1.90;97.30;;;;;;5059170;28;20672;-81
2022/02/01 05:07:10;;;;;;;23.47;6.37;;;1.90;97.30;;;;;;5058841;28;20229;-81
2022/02/01 05:09:36;;;;;;;16.37;6.60;;;1.90;97.30;;;;;;5058322;28;20175;-81
2022/02/01 05:12:06;;;;;;;18.87;6.20;;;1.90;97.30;;;;;;5058473;28;20232;-81
2022/02/01 05:14:32;;;;;;;24.17;6.77;;;1.90;97.30;;;;;;5058307;28;20175;-81
2022/02/01 05:16:59;;;;;;;14.83;6.27;;;1.90;97.30;;;;;;5058070;28;20958;-80
2022/02/01 05:22:00;;;;;;;13.20;6.47;;;1.80;97.30;;;;;;5072593;28;20452;-81
2022/02/01 05:24:26;;;;;;;21.77;7.50;;;1.80;97.30;;;;;;5057934;28;20927;-81
2022/02/01 05:26:56;;;;;;;21.57;8.20;;;1.70;97.30;;;;;;5076335;28;20411;-81
2022/02/01 05:29:22;;;;;;;19.80;7.30;;;1.60;97.30;;;;;;5076605;28;20990;-80
2022/02/01 05:31:50;;;;;;;18.03;6.93;;;1.60;97.30;;;;;;5058148;28;20511;-80
2022/02/01 05:34:15;;;;;;;21.63;8.07;;;1.60;97.30;;;;;;5060561;28;20448;-81
2022/02/01 05:36:41;;;;;;;16.93;7.27;;;1.50;97.30;;;;;;5078643;28;20415;-80
2022/02/01 05:39:17;;;;;;;19.67;7.33;;;1.60;97.30;;;;;;5079012;28;20233;-80
2022/02/01 05:41:44;;;;;;;17.20;7.17;;;1.60;97.30;;;;;;5078964;28;20206;-80
2022/02/01 05:44:10;;;;;;;24.70;9.00;;;1.50;97.30;;;;;;5062055;28;20502;-80
2022/02/01 05:46:36;;;;;;;19.10;8.07;;;1.50;97.30;;;;;;5080254;28;20410;-80
2022/02/01 05:49:03;;;;;;;20.73;8.20;;;1.50;97.30;;;;;;5062332;28;20512;-81
2022/02/01 05:51:28;;;;;;;23.87;7.60;;;1.50;97.30;;;;;;5061569;28;20183;-80
2022/02/01 05:53:54;;;;;;;26.83;8.13;;;1.50;97.30;;;;;;5062315;28;20441;-80
2022/02/01 05:56:19;;;;;;;23.53;8.07;;;1.50;97.30;;;;;;5062039;28;20179;-80
2022/02/01 05:58:45;;;;;;;25.13;7.63;;;1.50;97.30;;;;;;5062004;28;20209;-79
2022/02/01 06:01:18;;;;;;;32.03;9.30;;;1.50;97.30;;;;;;5060622;28;20179;-80
2022/02/01 06:03:45;;;;;;;29.50;8.87;;;1.50;97.30;;;;;;5079734;28;20202;-79
2022/02/01 06:06:10;;;;;;;29.83;8.10;;;1.50;97.30;;;;;;5045414;28;20410;-79
2022/02/01 06:08:36;;;;;;;20.13;8.50;;;1.50;97.30;;;;;;5080145;28;20950;-78
2022/02/01 06:11:02;;;;;;;27.50;8.97;;;1.50;97.30;;;;;;5061935;28;20199;-80
2022/02/01 06:13:28;;;;;;;25.40;8.80;;;1.40;97.30;;;;;;5061519;28;20440;-77
2022/02/01 06:15:54;;;;;;;25.40;7.80;;;1.40;97.30;;;;;;5060421;28;20218;-79
2022/02/01 06:18:19;;;;;;;18.03;8.10;;;1.40;97.30;;;;;;5060213;28;20182;-78
2022/02/01 06:20:45;;;;;;;20.97;9.10;;;1.40;97.30;;;;;;5060457;28;20172;-79
2022/02/01 06:23:17;;;;;;;15.13;5.93;;;1.50;97.30;;;;;;5059280;28;20206;-79
2022/02/01 06:25:51;;;;;;;18.77;7.17;;;1.50;97.30;;;;;;5059675;28;20243;-79
2022/02/01 06:28:25;;;;;;;25.37;8.67;;;1.50;97.30;;;;;;5059177;28;20413;-79
2022/02/01 06:30:51;;;;;;;27.20;7.87;;;1.50;97.30;;;;;;5077612;28;20412;-79
2022/02/01 06:33:18;;;;;;;35.47;9.07;;;1.50;97.30;;;;;;5061170;28;20437;-80
2022/02/01 06:35:44;;;;;;;21.47;8.10;;;1.50;97.30;;;;;;5080044;28;20413;-80
2022/02/01 06:38:13;;;;;;;33.33;9.63;;;1.60;97.30;;;;;;5062142;28;20414;-80
2022/02/01 06:40:41;;;;;;;25.10;8.20;;;1.60;97.30;;;;;;5061440;28;20413;-80
2022/02/01 06:43:07;;;;;;;25.40;8.27;;;1.60;97.30;;;;;;5069476;28;20518;-80
2022/02/01 06:45:33;;;;;;;29.70;7.10;;;1.70;97.30;;;;;;5098586;28;20408;-80
2022/02/01 06:48:00;;;;;;;19.63;6.90;;;1.70;97.30;;;;;;5081947;28;20181;-80
2022/02/01 06:50:25;;;;;;;23.70;6.70;;;1.70;97.30;;;;;;5099640;28;20637;-80
2022/02/01 06:52:56;;;;;;;22.20;7.47;;;1.80;97.30;;;;;;5081318;28;20479;-80
2022/02/01 06:55:32;;;;;;;21.57;6.93;;;1.80;97.30;;;;;;5081164;28;20170;-80
2022/02/01 06:58:02;;;;;;;20.40;5.90;;;1.90;97.30;;;;;;5081400;28;20842;-80
2022/02/01 07:00:28;;;;;;;17.17;6.10;;;1.90;97.30;;;;;;5081184;28;20413;-80
2022/02/01 07:02:54;;;;;;;24.47;6.90;;;2.00;97.30;;;;;;5099025;28;20467;-80
2022/02/01 07:05:19;;;;;;;16.97;6.30;;;2.00;97.30;;;;;;5080661;28;20424;-80
2022/02/01 07:07:45;;;;;;;24.73;6.30;;;2.00;97.30;;;;;;5080986;28;20209;-80
2022/02/01 07:10:10;;;;;;;14.50;5.57;;;2.00;97.30;;;;;;5080914;28;20179;-80
2022/02/01 07:12:36;;;;;;;15.10;5.33;;;2.00;97.30;;;;;;5100338;28;20213;-81
2022/02/01 07:15:02;;;;;;;18.50;5.33;;;2.00;97.30;;;;;;5099688;28;20209;-80
2022/02/01 07:17:27;;;;;;;21.20;5.10;;;2.10;97.30;;;;;;5080862;28;20174;-80
2022/02/01 07:19:53;;;;;;;15.90;5.67;;;2.10;97.30;;;;;;5081077;28;20422;-80
2022/02/01 07:22:21;;;;;;;16.30;4.37;;;2.10;97.30;;;;;;5099679;28;20279;-80
2022/02/01 07:24:59;;;;;;;16.20;5.10;;;2.10;97.30;;;;;;5081703;28;20202;-81
2022/02/01 07:27:42;;;;;;;25.83;5.30;;;2.10;97.30;;;;;;5081188;28;20423;-80
2022/02/01 07:30:11;;;;;;;13.93;4.83;;;2.20;97.30;;;;;;5081317;28;20412;-80
2022/02/01 07:32:37;;;;;;;22.40;5.60;;;2.20;97.30;;;;;;5081394;28;20441;-80
2022/02/01 07:35:04;;;;;;;16.70;4.10;;;2.10;97.30;;;;;;5081051;28;20975;-80
2022/02/01 07:37:30;;;;;;;12.83;3.97;;;2.10;97.30;;;;;;5079266;28;20424;-80
2022/02/01 07:39:56;;;;;;;13.70;4.73;;;2.10;97.30;;;;;;5080786;28;20435;-80
2022/02/01 07:42:21;;;;;;;13.87;5.00;;;2.10;97.30;;;;;;5079696;28;20502;-80
2022/02/01 07:44:47;;;;;;;17.70;5.23;;;2.10;97.30;;;;;;5080395;28;20185;-80
2022/02/01 07:47:20;;;;;;;10.00;3.40;;;2.20;97.30;;;;;;5080142;28;20269;-80
2022/02/01 07:49:46;;;;;;;10.53;4.53;;;2.10;97.30;;;;;;5098146;28;20193;-80
2022/02/01 07:52:11;;;;;;;18.70;4.63;;;2.20;97.30;;;;;;5079701;28;20826;-80
2022/02/01 07:54:38;;;;;;;14.97;4.80;;;2.20;97.30;;;;;;5079089;28;20202;-79
2022/02/01 07:57:04;;;;;;;20.23;4.50;;;2.20;97.30;;;;;;5076185;28;20676;-79
2022/02/01 07:59:29;;;;;;;12.37;4.30;;;2.20;97.30;;;;;;5096037;28;20171;-79
2022/02/01 08:01:55;;;;;;;15.00;4.77;;;2.20;97.30;;;;;;5077359;28;20513;-79
2022/02/01 08:04:20;;;;;;;14.10;4.93;;;2.20;97.30;;;;;;5077625;28;20174;-82
2022/02/01 08:06:46;;;;;;;12.10;4.07;;;2.20;97.30;;;;;;5077757;28;20181;-78
2022/02/01 08:09:23;;;;;;;9.13;4.37;;;2.20;97.30;;;;;;5096202;28;20166;-79
2022/02/01 08:11:49;;;;;;;13.00;4.17;;;2.20;97.30;;;;;;5077924;28;20315;-79
2022/02/01 08:22:36;;;;;;;14.67;3.80;;;2.30;97.30;;;;;;5068139;28;20414;-75
2022/02/01 08:25:03;;;;;;;8.00;4.20;;;2.40;97.30;;;;;;5066815;28;20180;-76
2022/02/01 08:27:30;;;;;;;11.90;3.40;;;2.40;97.30;;;;;;5066496;28;21382;-75
2022/02/01 08:29:56;;;;;;;12.33;3.30;;;2.40;97.30;;;;;;5068407;28;20411;-76
2022/02/01 08:32:23;;;;;;;6.40;3.30;;;2.50;97.30;;;;;;5066060;28;20520;-75
2022/02/01 08:34:48;;;;;;;6.50;2.60;;;2.50;97.30;;;;;;5067605;28;20398;-75
2022/02/01 08:37:14;;;;;;;10.73;3.00;;;2.50;97.30;;;;;;5066340;28;20413;-76
2022/02/01 08:39:39;;;;;;;7.33;2.70;;;2.60;97.30;;;;;;5067408;28;20293;-76
2022/02/01 08:42:05;;;;;;;9.43;2.57;;;2.60;97.30;;;;;;5066066;28;20249;-75
2022/02/01 08:44:31;;;;;;;12.13;2.30;;;2.60;97.30;;;;;;5067255;28;20179;-75
2022/02/01 08:46:58;;;;;;;8.47;2.17;;;2.70;97.30;;;;;;5066054;28;20183;-75
2022/02/01 08:49:24;;;;;;;13.10;2.80;;;2.70;97.30;;;;;;5067146;28;20178;-75
2022/02/01 08:52:00;;;;;;;10.57;3.10;;;2.70;97.30;;;;;;5066123;28;20997;-76
2022/02/01 08:54:28;;;;;;;12.57;3.03;;;2.80;97.30;;;;;;5065761;28;20496;-74
2022/02/01 08:59:38;;;;;;;12.20;2.57;;;2.80;97.30;;;;;;5066873;28;20448;-75
2022/02/01 09:02:05;;;;;;;10.60;1.80;;;2.80;97.30;;;;;;5065684;28;20854;-76
2022/02/01 09:04:31;;;;;;;5.47;1.93;;;2.90;97.30;;;;;;5065471;28;20455;-76
2022/02/01 09:06:58;;;;;;;7.30;2.23;;;2.90;97.30;;;;;;5065705;28;20908;-75
2022/02/01 09:09:25;;;;;;;7.63;2.73;;;2.90;97.30;;;;;;5066152;28;20402;-75
2022/02/01 09:11:50;;;;;;;8.17;2.00;;;3.00;97.30;;;;;;5064457;28;20433;-76
2022/02/01 09:14:16;;;;;;;11.77;2.43;;;3.00;97.30;;;;;;5065426;28;20857;-75
2022/02/01 09:16:42;;;;;;;15.30;2.60;;;3.00;97.30;;;;;;5066844;28;20566;-76
2022/02/01 09:19:08;;;;;;;24.03;2.97;;;3.00;97.30;;;;;;5063625;28;20508;-77
2022/02/01 09:21:34;;;;;;;13.50;3.00;;;3.00;97.30;;;;;;5065053;28;20191;-76
2022/02/01 09:24:00;;;;;;;12.00;2.40;;;3.10;97.30;;;;;;5066997;28;20429;-77
2022/02/01 09:26:26;;;;;;;5.53;2.20;;;3.10;97.30;;;;;;5066223;28;20207;-76
2022/02/01 09:28:51;;;;;;;8.33;2.13;;;3.10;97.30;;;;;;5065806;28;20257;-75
2022/02/01 09:31:17;;;;;;;16.87;2.50;;;3.20;97.30;;;;;;5052311;28;20864;-78
2022/02/01 09:33:43;;;;;;;10.37;2.30;;;3.20;97.30;;;;;;5051263;28;20180;-76
2022/02/01 09:36:09;;;;;;;11.17;3.13;;;3.20;97.30;;;;;;5031499;28;20210;-75
2022/02/01 09:38:35;;;;;;;11.70;2.43;;;3.20;97.30;;;;;;5031681;28;20998;-75
2022/02/01 09:41:02;;;;;;;10.10;2.37;;;3.30;97.30;;;;;;5031325;28;20200;-75
2022/02/01 09:43:28;;;;;;;12.53;3.27;;;3.30;97.30;;;;;;5031952;28;20786;-76
2022/02/01 09:45:56;;;;;;;8.03;2.40;;;3.30;97.30;;;;;;5033468;28;20419;-75
2022/02/01 09:48:22;;;;;;;9.53;2.10;;;3.40;97.30;;;;;;5031978;28;20529;-76
2022/02/01 09:50:49;;;;;;;9.97;2.10;;;3.40;97.30;;;;;;5030534;28;20415;-76
2022/02/01 09:53:15;;;;;;;6.03;2.90;;;3.40;97.30;;;;;;5032575;28;20434;-76
2022/02/01 09:55:41;;;;;;;10.53;2.87;;;3.50;97.30;;;;;;5032288;28;20426;-76
2022/02/01 09:58:11;;;;;;;15.27;2.47;;;3.50;97.30;;;;;;5032319;28;20462;-76
2022/02/01 10:00:44;;;;;;;8.43;2.33;;;3.50;97.30;;;;;;5031336;28;20431;-76
2022/02/01 10:03:18;;;;;;;12.57;2.40;;;3.50;97.30;;;;;;5032656;28;20831;-76
2022/02/01 10:05:44;;;;;;;7.57;1.60;;;3.50;97.30;;;;;;5031384;28;20434;-76
2022/02/01 10:08:13;;;;;;;10.40;3.43;;;3.50;97.30;;;;;;5031479;28;20458;-76
2022/02/01 10:10:39;;;;;;;11.80;2.60;;;3.50;97.30;;;;;;5029697;28;20596;-76
2022/02/01 10:13:16;;;;;;;12.73;2.43;;;3.50;97.30;;;;;;5030531;28;20438;-76
2022/02/01 10:16:03;;;;;;;8.80;3.53;;;3.60;97.30;;;;;;5029528;28;20490;-76
2022/02/01 10:18:32;;;;;;;9.60;2.87;;;3.50;97.30;;;;;;5045441;28;20562;-76
2022/02/01 10:21:15;;;;;;;26.13;3.20;;;3.60;97.30;;;;;;5032319;28;20893;-78
2022/02/01 10:23:45;;;;;;;12.63;2.80;;;3.70;97.30;;;;;;5029857;28;20428;-76
2022/02/01 10:26:21;;;;;;;11.07;3.73;;;3.70;97.30;;;;;;5030701;28;20951;-77
2022/02/01 10:34:43;;;;;;;16.83;2.80;;;3.60;97.30;;;;;;5052158;28;20448;-76
2022/02/01 10:37:25;;;;;;;9.63;2.33;;;3.60;97.30;;;;;;5051756;28;20774;-76
2022/02/01 10:40:05;;;;;;;13.93;3.23;;;3.60;97.30;;;;;;5050396;28;20481;-76
2022/02/01 10:42:31;;;;;;;6.07;2.30;;;3.60;97.30;;;;;;5050507;28;20455;-76
2022/02/01 10:44:58;;;;;;;10.00;4.47;;;3.60;97.30;;;;;;5051369;28;20914;-75
2022/02/01 10:47:36;;;;;;;18.00;3.00;;;3.50;97.30;;;;;;5050290;28;20198;-76
2022/02/01 10:50:10;;;;;;;15.97;3.07;;;3.50;97.30;;;;;;5051281;28;20410;-76
2022/02/01 10:52:41;;;;;;;14.10;3.63;;;3.50;97.30;;;;;;5049874;28;20500;-76
2022/02/01 10:55:09;;;;;;;17.77;3.13;;;3.50;97.30;;;;;;5049935;28;20418;-76
2022/02/01 10:57:35;;;;;;;8.10;2.67;;;3.50;97.30;;;;;;5049731;28;20509;-75
2022/02/01 11:00:01;;;;;;;8.73;2.37;;;3.50;97.30;;;;;;5050080;28;20497;-76
2022/02/01 11:02:28;;;;;;;9.93;2.90;;;3.60;97.30;;;;;;5051291;28;20419;-76
2022/02/01 11:04:55;;;;;;;5.77;2.10;;;3.70;97.30;;;;;;5048517;28;20426;-76
2022/02/01 11:07:21;;;;;;;7.17;2.97;;;3.70;97.30;;;;;;5050044;28;20445;-76
2022/02/01 11:09:47;;;;;;;9.20;2.27;;;3.80;97.30;;;;;;5049806;28;20923;-76
2022/02/01 11:12:13;;;;;;;8.43;3.33;;;3.80;97.30;;;;;;5049401;28;20199;-77
2022/02/01 11:14:48;;;;;;;8.60;2.53;;;3.90;97.30;;;;;;5049317;28;20425;-76
2022/02/01 11:17:17;;;;;;;6.30;3.07;;;4.00;97.30;;;;;;5048731;28;20410;-75
2022/02/01 11:19:55;;;;;;;6.67;2.80;;;4.10;97.30;;;;;;5048910;28;20473;-76
2022/02/01 11:22:28;;;;;;;6.60;2.37;;;4.10;97.30;;;;;;5049543;28;20418;-77
2022/02/01 11:25:19;;;;;;;6.57;2.67;;;4.10;97.30;;;;;;5048789;28;20461;-76
2022/02/01 11:30:34;;;;;;;6.93;2.33;;;4.20;97.30;;;;;;5050419;28;20923;-77
2022/02/01 11:33:00;;;;;;;4.13;2.20;;;4.30;97.30;;;;;;5047978;28;20430;-77
2022/02/01 11:35:27;;;;;;;3.57;1.67;;;4.40;97.30;;;;;;5048816;28;20442;-77
2022/02/01 11:37:53;;;;;;;14.23;2.43;;;4.30;97.30;;;;;;5049113;28;21009;-77
2022/02/01 11:40:21;;;;;;;12.10;2.20;;;4.40;97.30;;;;;;5050241;28;20406;-77
2022/02/01 11:42:54;;;;;;;11.10;2.60;;;4.40;97.30;;;;;;5050626;28;20448;-76
2022/02/01 11:45:32;;;;;;;4.80;1.70;;;4.40;97.30;;;;;;5050332;28;20414;-79
2022/02/01 11:47:58;;;;;;;9.13;3.07;;;4.40;97.30;;;;;;5050414;28;20394;-76
2022/02/01 11:50:27;;;;;;;9.23;2.80;;;4.40;97.30;;;;;;5050328;28;20410;-77
2022/02/01 11:52:56;;;;;;;7.83;2.37;;;4.50;97.30;;;;;;5049099;28;20442;-76
2022/02/01 11:55:28;;;;;;;13.00;2.90;;;4.50;97.30;;;;;;5049391;28;20423;-77
2022/02/01 11:58:00;;;;;;;8.50;2.10;;;4.50;97.30;;;;;;5049271;28;20450;-77
2022/02/01 12:00:27;;;;;;;7.97;2.13;;;4.50;97.30;;;;;;5048926;28;20515;-77
2022/02/01 12:02:57;;;;;;;5.40;2.10;;;4.50;97.30;;;;;;5048689;28;20458;-78
2022/02/01 12:05:34;;;;;;;6.67;2.43;;;4.50;97.30;;;;;;5049984;28;20434;-76
2022/02/01 12:08:15;;;;;;;10.43;2.27;;;4.40;97.30;;;;;;5048808;28;20414;-77
2022/02/01 12:10:52;;;;;;;3.40;2.00;;;4.50;97.30;;;;;;5048429;28;20476;-77
2022/02/01 12:13:23;;;;;;;4.70;2.40;;;4.50;97.30;;;;;;5049980;28;20398;-77
2022/02/01 12:15:52;;;;;;;7.93;2.23;;;4.40;97.30;;;;;;5049886;28;20937;-76
2022/02/01 12:18:33;;;;;;;11.00;2.40;;;4.40;97.30;;;;;;5049857;28;20470;-76
2022/02/01 12:21:17;;;;;;;2.50;1.63;;;4.40;97.30;;;;;;5048347;28;20509;-76
2022/02/01 12:23:50;;;;;;;7.03;2.47;;;4.40;97.30;;;;;;5049779;28;20402;-77
2022/02/01 12:26:34;;;;;;;4.70;1.63;;;4.40;97.30;;;;;;5048694;28;20418;-76
2022/02/01 12:29:03;;;;;;;3.73;1.90;;;4.40;97.30;;;;;;5050064;28;20787;-77
2022/02/01 12:31:31;;;;;;;5.30;2.43;;;4.40;97.30;;;;;;5048171;28;20978;-77
2022/02/01 12:33:59;;;;;;;11.60;2.73;;;4.40;97.30;;;;;;5049922;28;20418;-77
2022/02/01 12:36:29;;;;;;;9.00;2.40;;;4.30;97.30;;;;;;5049709;28;20745;-78
2022/02/01 12:39:23;;;;;;;5.50;2.33;;;4.20;97.30;;;;;;5032652;28;20461;-77
2022/02/01 12:42:07;;;;;;;10.80;2.70;;;4.10;97.30;;;;;;5049699;28;20517;-77
2022/02/01 12:47:04;;;;;;;5.80;2.90;;;3.90;97.30;;;;;;5049993;28;20406;-76
2022/02/01 12:49:49;;;;;;;6.50;2.40;;;3.90;97.30;;;;;;5048923;28;20428;-76
2022/02/01 12:52:29;;;;;;;9.40;2.70;;;3.90;97.30;;;;;;5050082;28;20767;-76
2022/02/01 12:55:10;;;;;;;10.67;3.40;;;3.90;97.30;;;;;;5048102;28;20449;-76
2022/02/01 12:57:37;;;;;;;5.03;2.60;;;3.80;97.30;;;;;;5048445;28;20505;-78
2022/02/01 13:00:13;;;;;;;8.43;3.13;;;3.80;97.30;;;;;;5049403;28;20515;-77
2022/02/01 13:02:39;;;;;;;5.53;2.60;;;3.70;97.30;;;;;;5047611;28;20430;-77
2022/02/01 13:05:11;;;;;;;4.77;2.90;;;3.70;97.30;;;;;;5049563;28;20559;-76
2022/02/01 13:07:57;;;;;;;5.47;3.07;;;3.60;97.30;;;;;;5051806;28;20501;-76
2022/02/01 13:16:37;;;;;;;8.87;3.70;;;3.40;97.30;;;;;;5053246;28;20453;-76
2022/02/01 13:21:53;;;;;;;9.10;3.30;;;3.40;97.30;;;;;;5050462;28;20434;-76
2022/02/01 13:24:28;;;;;;;9.37;3.13;;;3.30;97.30;;;;;;5050891;28;20414;-77
2022/02/01 13:26:54;;;;;;;9.23;3.00;;;3.30;97.30;;;;;;5051550;28;20171;-76
2022/02/01 13:29:20;;;;;;;9.43;2.97;;;3.30;97.30;;;;;;5051045;28;20422;-76
2022/02/01 13:31:49;;;;;;;6.20;3.47;;;3.40;97.30;;;;;;5052932;28;20194;-76
2022/02/01 13:34:15;;;;;;;9.70;3.70;;;3.40;97.30;;;;;;5047565;28;20547;-75
2022/02/01 13:36:49;;;;;;;7.17;3.00;;;3.40;97.30;;;;;;5031726;28;20419;-77
2022/02/01 13:39:26;;;;;;;9.23;3.30;;;3.40;97.30;;;;;;5033008;28;20200;-77
2022/02/01 13:42:05;;;;;;;5.37;3.20;;;3.40;97.30;;;;;;5031879;28;20519;-77
2022/02/01 13:44:31;;;;;;;8.43;3.13;;;3.40;97.30;;;;;;5033323;28;20434;-76
2022/02/01 13:47:09;;;;;;;12.70;3.50;;;3.40;97.30;;;;;;5032828;28;20771;-76
2022/02/01 13:49:37;;;;;;;5.83;2.93;;;3.40;97.30;;;;;;5031462;28;20787;-77
2022/02/01 13:52:05;;;;;;;7.40;2.73;;;3.50;97.30;;;;;;5032480;28;20469;-76
2022/02/01 13:54:42;;;;;;;6.60;3.03;;;3.50;97.30;;;;;;5033363;28;20442;-76
2022/02/01 13:57:17;;;;;;;15.37;2.90;;;3.50;97.30;;;;;;5049737;28;20418;-76
2022/02/01 13:59:43;;;;;;;4.13;2.10;;;3.50;97.30;;;;;;5052330;28;20449;-76
2022/02/01 14:02:11;;;;;;;5.00;2.50;;;3.50;97.30;;;;;;5050825;28;20521;-77
2022/02/01 14:04:51;;;;;;;5.57;2.47;;;3.50;97.30;;;;;;5052601;28;20421;-77
2022/02/01 14:25:47;;;;;;;2.63;1.83;;;3.70;97.30;;;;;;5052335;28;20501;-76
2022/02/01 14:34:06;;;;;;;2.40;1.87;;;3.80;97.30;;;;;;5051188;28;20476;-76
2022/02/01 14:36:36;;;;;;;3.97;1.63;;;3.90;97.30;;;;;;5052819;28;20430;-77
2022/02/01 14:46:44;;;;;;;4.70;1.67;;;4.00;97.30;;;;;;5051761;28;21109;-77
2022/02/01 14:49:09;;;;;;;2.07;1.93;;;4.00;97.30;;;;;;5050078;28;20179;-77
2022/02/01 14:51:36;;;;;;;2.90;2.30;;;4.00;97.30;;;;;;5049681;28;20438;-76
2022/02/01 14:54:02;;;;;;;4.93;1.93;;;4.10;97.30;;;;;;5048729;28;20176;-77
2022/02/01 14:56:34;;;;;;;2.60;1.83;;;4.10;97.30;;;;;;5050105;28;20419;-76
2022/02/01 15:07:19;;;;;;;1.40;1.10;;;4.10;97.30;;;;;;5051710;28;20493;-77
2022/02/01 15:12:40;;;;;;;1.43;1.20;;;4.20;97.30;;;;;;5049442;28;20445;-77
2022/02/01 15:15:08;;;;;;;1.30;1.20;;;4.30;97.30;;;;;;5051057;28;20422;-78
2022/02/01 15:17:36;;;;;;;1.17;1.07;;;4.30;97.30;;;;;;5046649;28;20919;-78
2022/02/01 15:20:07;;;;;;;1.13;1.03;;;4.40;97.30;;;;;;5046486;28;20474;-78
2022/02/01 15:22:32;;;;;;;1.67;1.10;;;4.50;97.30;;;;;;5038420;28;20437;-77